sensor_id;sensor_type;location;lat;lon;timestamp;pressure;altitude;pressure_sealevel;temperature;humidity
692;BME280;70475;50.084;8.576;2023-11-21T00:00:07;100026.03;;;8.52;100.00
692;BME280;70475;50.084;8.576;2023-11-21T00:02:39;100027.28;;;8.56;100.00
692;BME280;70475;50.084;8.576;2023-11-21T00:05:07;100024.63;;;8.56;100.00
692;BME280;70475;50.084;8.576;2023-11-21T00:07:37;100029.31;;;8.54;100.00
692;BME280;70475;50.084;8.576;2023-11-21T00:10:06;100022.81;;;8.56;100.00
692;BME280;70475;50.084;8.576;2023-11-21T00:12:34;100027.47;;;8.69;100.00
692;BME280;70475;50.084;8.576;2023-11-21T00:15:03;100029.38;;;8.60;100.00
692;BME280;70475;50.084;8.576;2023-11-21T00:17:31;100026.00;;;8.66;100.00
692;BME280;70475;50.084;8.576;2023-11-21T00:19:59;100018.59;;;8.62;100.00
692;BME280;70475;50.084;8.576;2023-11-21T00:22:27;100020.50;;;8.68;100.00
692;BME280;70475;50.084;8.576;2023-11-21T00:24:55;100018.41;;;8.63;100.00
692;BME280;70475;50.084;8.576;2023-11-21T00:27:23;100019.78;;;8.59;100.00
692;BME280;70475;50.084;8.576;2023-11-21T00:29:52;100027.84;;;8.51;100.00
692;BME280;70475;50.084;8.576;2023-11-21T00:32:20;100029.69;;;8.51;100.00
692;BME280;70475;50.084;8.576;2023-11-21T00:34:47;100027.59;;;8.46;100.00
692;BME280;70475;50.084;8.576;2023-11-21T00:37:15;100024.09;;;8.46;100.00
692;BME280;70475;50.084;8.576;2023-11-21T00:39:43;100033.28;;;8.43;100.00
692;BME280;70475;50.084;8.576;2023-11-21T00:42:12;100030.13;;;8.54;100.00
692;BME280;70475;50.084;8.576;2023-11-21T00:44:39;100035.25;;;8.56;100.00
692;BME280;70475;50.084;8.576;2023-11-21T00:47:07;100025.44;;;8.71;100.00
692;BME280;70475;50.084;8.576;2023-11-21T00:49:35;100031.38;;;8.73;100.00
692;BME280;70475;50.084;8.576;2023-11-21T00:52:03;100032.69;;;8.62;100.00
692;BME280;70475;50.084;8.576;2023-11-21T00:54:31;100033.94;;;8.66;100.00
692;BME280;70475;50.084;8.576;2023-11-21T00:57:00;100035.72;;;8.59;100.00
692;BME280;70475;50.084;8.576;2023-11-21T00:59:29;100040.28;;;8.65;100.00
692;BME280;70475;50.084;8.576;2023-11-21T01:01:57;100028.13;;;8.56;100.00
692;BME280;70475;50.084;8.576;2023-11-21T01:04:27;100033.72;;;8.61;100.00
692;BME280;70475;50.084;8.576;2023-11-21T01:06:54;100034.41;;;8.70;100.00
692;BME280;70475;50.084;8.576;2023-11-21T01:09:22;100038.09;;;8.54;100.00
692;BME280;70475;50.084;8.576;2023-11-21T01:11:50;100042.59;;;8.54;100.00
692;BME280;70475;50.084;8.576;2023-11-21T01:14:18;100043.59;;;8.53;100.00
692;BME280;70475;50.084;8.576;2023-11-21T01:16:47;100045.25;;;8.54;100.00
692;BME280;70475;50.084;8.576;2023-11-21T01:19:15;100051.53;;;8.53;100.00
692;BME280;70475;50.084;8.576;2023-11-21T01:21:43;100051.44;;;8.61;100.00
692;BME280;70475;50.084;8.576;2023-11-21T01:24:10;100055.69;;;8.55;100.00
692;BME280;70475;50.084;8.576;2023-11-21T01:26:38;100056.22;;;8.51;100.00
692;BME280;70475;50.084;8.576;2023-11-21T01:29:05;100056.28;;;8.57;100.00
692;BME280;70475;50.084;8.576;2023-11-21T01:31:33;100047.59;;;8.63;100.00
692;BME280;70475;50.084;8.576;2023-11-21T01:34:02;100062.06;;;8.61;100.00
692;BME280;70475;50.084;8.576;2023-11-21T01:36:31;100057.97;;;8.58;100.00
692;BME280;70475;50.084;8.576;2023-11-21T01:38:59;100058.41;;;8.62;100.00
692;BME280;70475;50.084;8.576;2023-11-21T01:41:27;100064.63;;;8.54;100.00
692;BME280;70475;50.084;8.576;2023-11-21T01:43:55;100062.06;;;8.61;100.00
692;BME280;70475;50.084;8.576;2023-11-21T01:46:23;100066.78;;;8.80;100.00
692;BME280;70475;50.084;8.576;2023-11-21T01:48:52;100057.00;;;8.80;100.00
692;BME280;70475;50.084;8.576;2023-11-21T01:51:22;100058.34;;;8.91;100.00
692;BME280;70475;50.084;8.576;2023-11-21T01:53:50;100060.44;;;8.60;100.00
692;BME280;70475;50.084;8.576;2023-11-21T01:56:18;100055.03;;;8.53;100.00
692;BME280;70475;50.084;8.576;2023-11-21T01:58:45;100061.78;;;8.56;100.00
692;BME280;70475;50.084;8.576;2023-11-21T02:01:13;100071.41;;;8.57;100.00
692;BME280;70475;50.084;8.576;2023-11-21T02:03:41;100063.44;;;8.57;100.00
692;BME280;70475;50.084;8.576;2023-11-21T02:06:09;100061.53;;;8.51;100.00
692;BME280;70475;50.084;8.576;2023-11-21T02:08:38;100071.78;;;8.54;100.00
692;BME280;70475;50.084;8.576;2023-11-21T02:11:06;100071.41;;;8.57;100.00
692;BME280;70475;50.084;8.576;2023-11-21T02:13:33;100082.84;;;8.72;100.00
692;BME280;70475;50.084;8.576;2023-11-21T02:16:01;100083.22;;;8.69;100.00
692;BME280;70475;50.084;8.576;2023-11-21T02:18:29;100080.41;;;8.91;100.00
692;BME280;70475;50.084;8.576;2023-11-21T02:20:56;100075.56;;;8.95;100.00
692;BME280;70475;50.084;8.576;2023-11-21T02:23:26;100080.41;;;8.91;100.00
692;BME280;70475;50.084;8.576;2023-11-21T02:25:55;100071.88;;;8.96;100.00
692;BME280;70475;50.084;8.576;2023-11-21T02:28:23;100078.25;;;9.01;100.00
692;BME280;70475;50.084;8.576;2023-11-21T02:30:53;100065.81;;;9.02;100.00
692;BME280;70475;50.084;8.576;2023-11-21T02:33:22;100074.44;;;9.04;100.00
692;BME280;70475;50.084;8.576;2023-11-21T02:35:49;100069.91;;;9.04;100.00
692;BME280;70475;50.084;8.576;2023-11-21T02:38:21;100059.28;;;9.04;100.00
692;BME280;70475;50.084;8.576;2023-11-21T02:40:49;100068.09;;;9.05;100.00
692;BME280;70475;50.084;8.576;2023-11-21T02:43:17;100070.75;;;9.05;100.00
692;BME280;70475;50.084;8.576;2023-11-21T02:45:45;100067.25;;;9.04;100.00
692;BME280;70475;50.084;8.576;2023-11-21T02:48:12;100073.59;;;9.03;100.00
692;BME280;70475;50.084;8.576;2023-11-21T02:50:40;100063.81;;;9.04;100.00
692;BME280;70475;50.084;8.576;2023-11-21T02:53:09;100072.38;;;9.06;100.00
692;BME280;70475;50.084;8.576;2023-11-21T02:55:37;100071.59;;;9.05;100.00
692;BME280;70475;50.084;8.576;2023-11-21T02:58:06;100069.31;;;9.02;100.00
692;BME280;70475;50.084;8.576;2023-11-21T03:00:34;100068.38;;;9.10;100.00
692;BME280;70475;50.084;8.576;2023-11-21T03:03:01;100070.00;;;9.11;100.00
692;BME280;70475;50.084;8.576;2023-11-21T03:05:30;100068.28;;;9.03;100.00
692;BME280;70475;50.084;8.576;2023-11-21T03:07:58;100071.78;;;9.04;100.00
692;BME280;70475;50.084;8.576;2023-11-21T03:10:25;100074.47;;;9.10;100.00
692;BME280;70475;50.084;8.576;2023-11-21T03:12:53;100066.69;;;9.09;100.00
692;BME280;70475;50.084;8.576;2023-11-21T03:15:22;100067.44;;;9.03;100.00
692;BME280;70475;50.084;8.576;2023-11-21T03:17:50;100066.88;;;9.07;100.00
692;BME280;70475;50.084;8.576;2023-11-21T03:20:17;100063.81;;;9.04;100.00
692;BME280;70475;50.084;8.576;2023-11-21T03:22:45;100072.72;;;8.96;100.00
692;BME280;70475;50.084;8.576;2023-11-21T03:25:13;100072.16;;;9.01;100.00
692;BME280;70475;50.084;8.576;2023-11-21T03:27:41;100074.81;;;9.01;100.00
692;BME280;70475;50.084;8.576;2023-11-21T03:30:09;100085.97;;;8.96;100.00
692;BME280;70475;50.084;8.576;2023-11-21T03:32:39;100095.78;;;8.96;100.00
692;BME280;70475;50.084;8.576;2023-11-21T03:35:07;100094.13;;;8.95;100.00
692;BME280;70475;50.084;8.576;2023-11-21T03:37:34;100096.16;;;8.93;100.00
692;BME280;70475;50.084;8.576;2023-11-21T03:40:06;100103.50;;;8.91;100.00
692;BME280;70475;50.084;8.576;2023-11-21T03:42:34;100096.50;;;8.90;100.00
692;BME280;70475;50.084;8.576;2023-11-21T03:45:02;100095.91;;;8.88;100.00
692;BME280;70475;50.084;8.576;2023-11-21T03:47:30;100102.75;;;8.97;100.00
692;BME280;70475;50.084;8.576;2023-11-21T03:49:59;100101.72;;;8.98;100.00
692;BME280;70475;50.084;8.576;2023-11-21T03:52:27;100109.13;;;9.02;100.00
692;BME280;70475;50.084;8.576;2023-11-21T03:54:55;100112.22;;;9.06;100.00
692;BME280;70475;50.084;8.576;2023-11-21T03:57:22;100107.56;;;9.08;100.00
692;BME280;70475;50.084;8.576;2023-11-21T03:59:50;100106.31;;;9.04;100.00
692;BME280;70475;50.084;8.576;2023-11-21T04:02:17;100119.31;;;8.99;100.00
692;BME280;70475;50.084;8.576;2023-11-21T04:04:45;100116.28;;;9.02;100.00
692;BME280;70475;50.084;8.576;2023-11-21T04:07:14;100119.56;;;9.04;100.00
692;BME280;70475;50.084;8.576;2023-11-21T04:09:43;100114.25;;;9.04;100.00
692;BME280;70475;50.084;8.576;2023-11-21T04:12:10;100113.63;;;9.02;100.00
692;BME280;70475;50.084;8.576;2023-11-21T04:14:38;100117.66;;;8.98;100.00
692;BME280;70475;50.084;8.576;2023-11-21T04:17:05;100122.50;;;8.94;100.00
692;BME280;70475;50.084;8.576;2023-11-21T04:19:33;100128.56;;;8.88;100.00
692;BME280;70475;50.084;8.576;2023-11-21T04:22:01;100128.56;;;8.88;100.00
692;BME280;70475;50.084;8.576;2023-11-21T04:24:30;100136.34;;;8.90;100.00
692;BME280;70475;50.084;8.576;2023-11-21T04:26:57;100125.34;;;8.93;100.00
692;BME280;70475;50.084;8.576;2023-11-21T04:29:25;100123.91;;;8.90;100.00
692;BME280;70475;50.084;8.576;2023-11-21T04:31:53;100131.41;;;8.87;100.00
692;BME280;70475;50.084;8.576;2023-11-21T04:34:20;100142.50;;;8.90;100.00
692;BME280;70475;50.084;8.576;2023-11-21T04:36:49;100140.84;;;8.89;100.00
692;BME280;70475;50.084;8.576;2023-11-21T04:39:17;100145.69;;;8.86;100.00
692;BME280;70475;50.084;8.576;2023-11-21T04:41:46;100158.88;;;8.79;100.00
692;BME280;70475;50.084;8.576;2023-11-21T04:44:13;100158.06;;;8.79;100.00
692;BME280;70475;50.084;8.576;2023-11-21T04:46:42;100160.06;;;8.77;100.00
692;BME280;70475;50.084;8.576;2023-11-21T04:49:10;100165.19;;;8.78;100.00
692;BME280;70475;50.084;8.576;2023-11-21T04:51:38;100168.03;;;8.77;100.00
692;BME280;70475;50.084;8.576;2023-11-21T04:54:06;100169.41;;;8.73;100.00
692;BME280;70475;50.084;8.576;2023-11-21T04:56:33;100172.69;;;8.75;100.00
692;BME280;70475;50.084;8.576;2023-11-21T04:59:02;100179.69;;;8.76;100.00
692;BME280;70475;50.084;8.576;2023-11-21T05:01:31;100177.63;;;8.78;100.00
692;BME280;70475;50.084;8.576;2023-11-21T05:03:58;100181.59;;;8.82;100.00
692;BME280;70475;50.084;8.576;2023-11-21T05:06:26;100175.47;;;8.81;100.00
692;BME280;70475;50.084;8.576;2023-11-21T05:08:53;100185.25;;;8.81;100.00
692;BME280;70475;50.084;8.576;2023-11-21T05:11:24;100184.25;;;8.82;100.00
692;BME280;70475;50.084;8.576;2023-11-21T05:13:52;100184.88;;;8.84;100.00
692;BME280;70475;50.084;8.576;2023-11-21T05:16:25;100197.16;;;8.85;100.00
692;BME280;70475;50.084;8.576;2023-11-21T05:18:53;100191.19;;;8.83;100.00
692;BME280;70475;50.084;8.576;2023-11-21T05:21:26;100198.44;;;8.89;100.00
692;BME280;70475;50.084;8.576;2023-11-21T05:23:54;100193.13;;;8.89;100.00
692;BME280;70475;50.084;8.576;2023-11-21T05:26:21;100201.75;;;8.91;100.00
692;BME280;70475;50.084;8.576;2023-11-21T05:28:49;100207.41;;;8.88;100.00
692;BME280;70475;50.084;8.576;2023-11-21T05:31:17;100218.59;;;8.83;100.00
692;BME280;70475;50.084;8.576;2023-11-21T05:33:46;100217.28;;;8.79;100.00
692;BME280;70475;50.084;8.576;2023-11-21T05:36:13;100217.28;;;8.79;100.00
692;BME280;70475;50.084;8.576;2023-11-21T05:38:41;100216.84;;;8.76;100.00
692;BME280;70475;50.084;8.576;2023-11-21T05:41:09;100219.50;;;8.76;100.00
692;BME280;70475;50.084;8.576;2023-11-21T05:43:39;100216.19;;;8.74;100.00
692;BME280;70475;50.084;8.576;2023-11-21T05:46:07;100217.03;;;8.74;100.00
692;BME280;70475;50.084;8.576;2023-11-21T05:48:35;100220.88;;;8.72;100.00
692;BME280;70475;50.084;8.576;2023-11-21T05:51:06;100221.50;;;8.74;100.00
692;BME280;70475;50.084;8.576;2023-11-21T05:53:34;100214.19;;;8.76;100.00
692;BME280;70475;50.084;8.576;2023-11-21T05:56:02;100218.66;;;8.75;100.00
692;BME280;70475;50.084;8.576;2023-11-21T05:58:30;100223.53;;;8.72;100.00
692;BME280;70475;50.084;8.576;2023-11-21T06:00:58;100224.81;;;8.76;100.00
692;BME280;70475;50.084;8.576;2023-11-21T06:03:26;100230.13;;;8.76;100.00
692;BME280;70475;50.084;8.576;2023-11-21T06:05:53;100235.88;;;8.79;100.00
692;BME280;70475;50.084;8.576;2023-11-21T06:08:22;100233.03;;;8.81;100.00
692;BME280;70475;50.084;8.576;2023-11-21T06:10:51;100237.06;;;8.77;100.00
692;BME280;70475;50.084;8.576;2023-11-21T06:13:18;100237.06;;;8.77;100.00
692;BME280;70475;50.084;8.576;2023-11-21T06:15:50;100248.16;;;8.80;100.00
692;BME280;70475;50.084;8.576;2023-11-21T06:18:18;100258.41;;;8.83;100.00
692;BME280;70475;50.084;8.576;2023-11-21T06:20:46;100261.25;;;8.82;100.00
692;BME280;70475;50.084;8.576;2023-11-21T06:23:14;100265.25;;;8.78;100.00
692;BME280;70475;50.084;8.576;2023-11-21T06:25:44;100262.78;;;8.76;100.00
692;BME280;70475;50.084;8.576;2023-11-21T06:28:11;100266.63;;;8.74;100.00
692;BME280;70475;50.084;8.576;2023-11-21T06:30:39;100270.91;;;8.75;100.00
692;BME280;70475;50.084;8.576;2023-11-21T06:33:06;100276.69;;;8.78;100.00
692;BME280;70475;50.084;8.576;2023-11-21T06:35:34;100283.47;;;8.81;100.00
692;BME280;70475;50.084;8.576;2023-11-21T06:38:02;100284.13;;;8.83;100.00
692;BME280;70475;50.084;8.576;2023-11-21T06:40:30;100289.06;;;8.86;100.00
692;BME280;70475;50.084;8.576;2023-11-21T06:43:01;100289.06;;;8.86;100.00
692;BME280;70475;50.084;8.576;2023-11-21T06:45:29;100291.06;;;8.84;100.00
692;BME280;70475;50.084;8.576;2023-11-21T06:47:56;100294.56;;;8.84;100.00
692;BME280;70475;50.084;8.576;2023-11-21T06:50:24;100297.69;;;8.88;100.00
692;BME280;70475;50.084;8.576;2023-11-21T06:52:52;100308.69;;;8.85;100.00
692;BME280;70475;50.084;8.576;2023-11-21T06:55:19;100304.19;;;8.85;100.00
692;BME280;70475;50.084;8.576;2023-11-21T06:57:47;100313.63;;;8.88;100.00
692;BME280;70475;50.084;8.576;2023-11-21T07:00:17;100319.13;;;8.86;100.00
692;BME280;70475;50.084;8.576;2023-11-21T07:02:45;100320.94;;;8.86;100.00
692;BME280;70475;50.084;8.576;2023-11-21T07:05:13;100327.88;;;8.87;100.00
692;BME280;70475;50.084;8.576;2023-11-21T07:07:41;100323.59;;;8.86;100.00
692;BME280;70475;50.084;8.576;2023-11-21T07:10:09;100328.25;;;8.84;100.00
692;BME280;70475;50.084;8.576;2023-11-21T07:12:37;100334.41;;;8.84;100.00
692;BME280;70475;50.084;8.576;2023-11-21T07:15:06;100334.03;;;8.87;100.00
692;BME280;70475;50.084;8.576;2023-11-21T07:17:37;100336.88;;;8.86;100.00
692;BME280;70475;50.084;8.576;2023-11-21T07:20:07;100345.31;;;8.89;100.00
692;BME280;70475;50.084;8.576;2023-11-21T07:22:35;100340.81;;;8.90;100.00
692;BME280;70475;50.084;8.576;2023-11-21T07:25:04;100355.09;;;8.89;100.00
692;BME280;70475;50.084;8.576;2023-11-21T07:27:31;100359.88;;;8.93;100.00
692;BME280;70475;50.084;8.576;2023-11-21T07:30:00;100365.38;;;8.92;100.00
692;BME280;70475;50.084;8.576;2023-11-21T07:32:29;100360.72;;;8.94;100.00
692;BME280;70475;50.084;8.576;2023-11-21T07:34:58;100359.88;;;8.93;100.00
692;BME280;70475;50.084;8.576;2023-11-21T07:37:27;100371.97;;;8.96;100.00
692;BME280;70475;50.084;8.576;2023-11-21T07:39:56;100362.81;;;8.98;100.00
692;BME280;70475;50.084;8.576;2023-11-21T07:42:23;100355.03;;;8.97;100.00
692;BME280;70475;50.084;8.576;2023-11-21T07:44:52;100356.69;;;8.98;100.00
692;BME280;70475;50.084;8.576;2023-11-21T07:47:20;100358.31;;;8.99;100.00
692;BME280;70475;50.084;8.576;2023-11-21T07:49:47;100362.00;;;8.98;100.00
692;BME280;70475;50.084;8.576;2023-11-21T07:52:16;100364.28;;;9.01;100.00
692;BME280;70475;50.084;8.576;2023-11-21T07:54:45;100363.28;;;9.02;100.00
692;BME280;70475;50.084;8.576;2023-11-21T07:57:12;100366.59;;;9.04;100.00
692;BME280;70475;50.084;8.576;2023-11-21T07:59:40;100379.03;;;9.03;100.00
692;BME280;70475;50.084;8.576;2023-11-21T08:02:08;100370.53;;;9.08;100.00
692;BME280;70475;50.084;8.576;2023-11-21T08:04:35;100378.13;;;9.11;100.00
692;BME280;70475;50.084;8.576;2023-11-21T08:07:03;100392.06;;;9.13;100.00
692;BME280;70475;50.084;8.576;2023-11-21T08:09:32;100383.09;;;9.14;100.00
692;BME280;70475;50.084;8.576;2023-11-21T08:12:00;100392.88;;;9.13;100.00
692;BME280;70475;50.084;8.576;2023-11-21T08:14:29;100388.63;;;9.04;100.00
692;BME280;70475;50.084;8.576;2023-11-21T08:16:56;100390.13;;;9.07;100.00
692;BME280;70475;50.084;8.576;2023-11-21T08:19:24;100394.72;;;9.13;100.00
692;BME280;70475;50.084;8.576;2023-11-21T08:21:52;100397.38;;;9.13;100.00
692;BME280;70475;50.084;8.576;2023-11-21T08:24:21;100401.63;;;9.22;100.00
692;BME280;70475;50.084;8.576;2023-11-21T08:26:50;100405.56;;;9.26;100.00
692;BME280;70475;50.084;8.576;2023-11-21T08:29:18;100415.53;;;9.24;100.00
692;BME280;70475;50.084;8.576;2023-11-21T08:31:46;100403.78;;;9.18;100.00
692;BME280;70475;50.084;8.576;2023-11-21T08:34:13;100412.59;;;9.19;100.00
692;BME280;70475;50.084;8.576;2023-11-21T08:36:42;100423.84;;;9.21;100.00
692;BME280;70475;50.084;8.576;2023-11-21T08:39:10;100422.03;;;9.21;100.00
692;BME280;70475;50.084;8.576;2023-11-21T08:41:39;100424.16;;;9.26;100.00
692;BME280;70475;50.084;8.576;2023-11-21T08:44:09;100424.16;;;9.26;100.00
692;BME280;70475;50.084;8.576;2023-11-21T08:46:37;100425.91;;;9.33;100.00
692;BME280;70475;50.084;8.576;2023-11-21T08:49:06;100425.00;;;9.41;100.00
692;BME280;70475;50.084;8.576;2023-11-21T08:51:33;100426.81;;;9.40;100.00
692;BME280;70475;50.084;8.576;2023-11-21T08:54:01;100432.88;;;9.34;100.00
692;BME280;70475;50.084;8.576;2023-11-21T08:56:31;100430.38;;;9.33;100.00
692;BME280;70475;50.084;8.576;2023-11-21T08:58:58;100437.69;;;9.31;100.00
692;BME280;70475;50.084;8.576;2023-11-21T09:01:29;100441.00;;;9.33;100.00
692;BME280;70475;50.084;8.576;2023-11-21T09:03:58;100443.19;;;9.29;100.00
692;BME280;70475;50.084;8.576;2023-11-21T09:06:25;100448.69;;;9.28;100.00
692;BME280;70475;50.084;8.576;2023-11-21T09:08:53;100454.97;;;9.35;100.00
692;BME280;70475;50.084;8.576;2023-11-21T09:11:20;100456.59;;;9.36;100.00
692;BME280;70475;50.084;8.576;2023-11-21T09:13:48;100459.06;;;9.37;100.00
692;BME280;70475;50.084;8.576;2023-11-21T09:16:16;100454.50;;;9.46;100.00
692;BME280;70475;50.084;8.576;2023-11-21T09:18:45;100462.94;;;9.49;100.00
692;BME280;70475;50.084;8.576;2023-11-21T09:21:12;100459.81;;;9.46;100.00
692;BME280;70475;50.084;8.576;2023-11-21T09:23:40;100469.91;;;9.50;100.00
692;BME280;70475;50.084;8.576;2023-11-21T09:26:08;100470.66;;;9.59;100.00
692;BME280;70475;50.084;8.576;2023-11-21T09:28:36;100473.13;;;9.60;100.00
692;BME280;70475;50.084;8.576;2023-11-21T09:31:04;100473.50;;;9.57;100.00
692;BME280;70475;50.084;8.576;2023-11-21T09:33:35;100470.09;;;9.63;100.00
692;BME280;70475;50.084;8.576;2023-11-21T09:36:11;100476.44;;;9.77;100.00
692;BME280;70475;50.084;8.576;2023-11-21T09:38:39;100471.78;;;9.79;100.00
692;BME280;70475;50.084;8.576;2023-11-21T09:41:13;100468.84;;;9.74;100.00
692;BME280;70475;50.084;8.576;2023-11-21T09:43:46;100479.94;;;9.77;100.00
692;BME280;70475;50.084;8.576;2023-11-21T09:46:14;100486.00;;;9.86;100.00
692;BME280;70475;50.084;8.576;2023-11-21T09:48:48;100481.69;;;9.85;100.00
692;BME280;70475;50.084;8.576;2023-11-21T09:51:19;100481.50;;;9.86;100.00
692;BME280;70475;50.084;8.576;2023-11-21T09:53:49;100494.50;;;9.81;100.00
692;BME280;70475;50.084;8.576;2023-11-21T09:56:18;100492.88;;;9.66;100.00
692;BME280;70475;50.084;8.576;2023-11-21T09:58:51;100499.88;;;9.59;100.00
692;BME280;70475;50.084;8.576;2023-11-21T10:01:20;100496.59;;;9.57;100.00
692;BME280;70475;50.084;8.576;2023-11-21T10:03:48;100500.97;;;9.50;100.00
692;BME280;70475;50.084;8.576;2023-11-21T10:06:17;100502.66;;;9.51;100.00
692;BME280;70475;50.084;8.576;2023-11-21T10:08:47;100512.00;;;9.47;100.00
692;BME280;70475;50.084;8.576;2023-11-21T10:11:23;100508.69;;;9.45;100.00
692;BME280;70475;50.084;8.576;2023-11-21T10:13:53;100517.19;;;9.40;100.00
692;BME280;70475;50.084;8.576;2023-11-21T10:16:25;100515.13;;;9.65;100.00
692;BME280;70475;50.084;8.576;2023-11-21T10:18:53;100514.69;;;9.76;100.00
692;BME280;70475;50.084;8.576;2023-11-21T10:21:37;100509.63;;;9.81;100.00
692;BME280;70475;50.084;8.576;2023-11-21T10:24:07;100514.22;;;9.87;100.00
692;BME280;70475;50.084;8.576;2023-11-21T10:26:35;100513.88;;;9.90;100.00
692;BME280;70475;50.084;8.576;2023-11-21T10:29:18;100517.47;;;9.97;100.00
692;BME280;70475;50.084;8.576;2023-11-21T10:31:49;100522.34;;;10.08;100.00
692;BME280;70475;50.084;8.576;2023-11-21T10:34:18;100511.44;;;10.17;100.00
692;BME280;70475;50.084;8.576;2023-11-21T10:36:46;100520.78;;;10.28;100.00
692;BME280;70475;50.084;8.576;2023-11-21T10:39:16;100510.56;;;10.46;100.00
692;BME280;70475;50.084;8.576;2023-11-21T10:41:45;100516.25;;;10.43;100.00
692;BME280;70475;50.084;8.576;2023-11-21T10:44:14;100513.59;;;10.43;100.00
692;BME280;70475;50.084;8.576;2023-11-21T10:46:46;100515.53;;;10.49;100.00
692;BME280;70475;50.084;8.576;2023-11-21T10:49:17;100508.44;;;10.56;100.00
692;BME280;70475;50.084;8.576;2023-11-21T10:51:45;100509.09;;;10.58;100.00
692;BME280;70475;50.084;8.576;2023-11-21T10:54:18;100510.25;;;10.70;100.00
692;BME280;70475;50.084;8.576;2023-11-21T10:56:48;100505.56;;;10.72;100.00
692;BME280;70475;50.084;8.576;2023-11-21T10:59:17;100503.53;;;10.74;100.00
692;BME280;70475;50.084;8.576;2023-11-21T11:01:47;100503.66;;;10.87;100.00
692;BME280;70475;50.084;8.576;2023-11-21T11:04:18;100505.75;;;10.92;100.00
692;BME280;70475;50.084;8.576;2023-11-21T11:06:50;100501.78;;;11.02;100.00
692;BME280;70475;50.084;8.576;2023-11-21T11:09:20;100501.13;;;11.21;100.00
692;BME280;70475;50.084;8.576;2023-11-21T11:11:48;100508.06;;;11.37;100.00
692;BME280;70475;50.084;8.576;2023-11-21T11:14:15;100515.41;;;11.56;100.00
692;BME280;70475;50.084;8.576;2023-11-21T11:16:45;100507.13;;;11.72;100.00
692;BME280;70475;50.084;8.576;2023-11-21T11:19:13;100510.19;;;11.69;100.00
692;BME280;70475;50.084;8.576;2023-11-21T11:21:48;100502.34;;;11.40;100.00
692;BME280;70475;50.084;8.576;2023-11-21T11:24:33;100498.38;;;11.36;100.00
692;BME280;70475;50.084;8.576;2023-11-21T11:27:11;100493.13;;;11.42;100.00
692;BME280;70475;50.084;8.576;2023-11-21T11:29:47;100498.53;;;11.49;100.00
692;BME280;70475;50.084;8.576;2023-11-21T11:32:24;100496.84;;;11.48;100.00
692;BME280;70475;50.084;8.576;2023-11-21T11:35:01;100494.75;;;11.43;100.00
692;BME280;70475;50.084;8.576;2023-11-21T11:37:31;100494.75;;;11.43;100.00
692;BME280;70475;50.084;8.576;2023-11-21T11:40:00;100493.22;;;11.55;100.00
692;BME280;70475;50.084;8.576;2023-11-21T11:42:29;100500.34;;;11.48;100.00
692;BME280;70475;50.084;8.576;2023-11-21T11:44:56;100498.56;;;11.55;100.00
692;BME280;70475;50.084;8.576;2023-11-21T11:47:25;100501.41;;;11.54;100.00
692;BME280;70475;50.084;8.576;2023-11-21T11:50:03;100496.94;;;11.61;100.00
692;BME280;70475;50.084;8.576;2023-11-21T11:52:41;100506.75;;;11.54;100.00
692;BME280;70475;50.084;8.576;2023-11-21T11:55:11;100503.69;;;11.57;100.00
692;BME280;70475;50.084;8.576;2023-11-21T11:57:40;100497.63;;;11.63;100.00
692;BME280;70475;50.084;8.576;2023-11-21T12:00:12;100512.03;;;11.68;100.00
692;BME280;70475;50.084;8.576;2023-11-21T12:02:45;100506.88;;;11.67;100.00
692;BME280;70475;50.084;8.576;2023-11-21T12:05:14;100513.44;;;11.64;100.00
692;BME280;70475;50.084;8.576;2023-11-21T12:07:47;100517.75;;;11.65;100.00
692;BME280;70475;50.084;8.576;2023-11-21T12:10:17;100510.97;;;11.63;100.00
692;BME280;70475;50.084;8.576;2023-11-21T12:12:46;100512.16;;;11.60;100.00
692;BME280;70475;50.084;8.576;2023-11-21T12:15:14;100515.34;;;11.49;100.00
692;BME280;70475;50.084;8.576;2023-11-21T12:17:42;100509.22;;;11.55;100.00
692;BME280;70475;50.084;8.576;2023-11-21T12:20:11;100516.75;;;11.66;100.00
692;BME280;70475;50.084;8.576;2023-11-21T12:22:45;100519.13;;;11.61;100.00
692;BME280;70475;50.084;8.576;2023-11-21T12:25:17;100527.91;;;11.55;100.00
692;BME280;70475;50.084;8.576;2023-11-21T12:27:46;100529.06;;;11.67;100.00
692;BME280;70475;50.084;8.576;2023-11-21T12:30:17;100522.81;;;11.60;100.00
692;BME280;70475;50.084;8.576;2023-11-21T12:32:48;100525.94;;;11.64;100.00
692;BME280;70475;50.084;8.576;2023-11-21T12:35:17;100537.97;;;11.53;100.00
692;BME280;70475;50.084;8.576;2023-11-21T12:37:46;100538.38;;;11.36;100.00
692;BME280;70475;50.084;8.576;2023-11-21T12:40:15;100540.28;;;11.42;100.00
692;BME280;70475;50.084;8.576;2023-11-21T12:42:46;100544.38;;;11.38;100.00
692;BME280;70475;50.084;8.576;2023-11-21T12:45:19;100549.56;;;11.46;100.00
692;BME280;70475;50.084;8.576;2023-11-21T12:47:49;100547.88;;;11.38;100.00
692;BME280;70475;50.084;8.576;2023-11-21T12:50:19;100553.38;;;11.37;100.00
692;BME280;70475;50.084;8.576;2023-11-21T12:52:50;100570.53;;;11.28;100.00
692;BME280;70475;50.084;8.576;2023-11-21T12:55:20;100571.56;;;11.27;100.00
692;BME280;70475;50.084;8.576;2023-11-21T12:57:51;100570.16;;;11.31;100.00
692;BME280;70475;50.084;8.576;2023-11-21T13:00:28;100570.94;;;11.31;100.00
692;BME280;70475;50.084;8.576;2023-11-21T13:02:57;100568.28;;;11.31;100.00
692;BME280;70475;50.084;8.576;2023-11-21T13:05:27;100574.41;;;11.25;100.00
692;BME280;70475;50.084;8.576;2023-11-21T13:07:55;100566.72;;;11.16;100.00
692;BME280;70475;50.084;8.576;2023-11-21T13:10:25;100562.88;;;11.04;100.00
692;BME280;70475;50.084;8.576;2023-11-21T13:12:57;100569.41;;;11.01;100.00
692;BME280;70475;50.084;8.576;2023-11-21T13:15:27;100566.75;;;11.01;100.00